sensor_id;sensor_type;location;lat;lon;timestamp;P1;durP1;ratioP1;P2;durP2;ratioP2
36827;SDS011;22766;48.042;11.192;2023-04-25T00:00:16;2.35;;;0.77;;
36827;SDS011;22766;48.042;11.192;2023-04-25T00:02:43;1.50;;;0.73;;
36827;SDS011;22766;48.042;11.192;2023-04-25T00:05:11;1.23;;;0.90;;
36827;SDS011;22766;48.042;11.192;2023-04-25T00:07:38;3.00;;;1.08;;
36827;SDS011;22766;48.042;11.192;2023-04-25T00:10:05;1.08;;;0.75;;
36827;SDS011;22766;48.042;11.192;2023-04-25T00:12:32;2.00;;;0.75;;
36827;SDS011;22766;48.042;11.192;2023-04-25T00:14:59;1.63;;;1.00;;
36827;SDS011;22766;48.042;11.192;2023-04-25T00:17:26;1.20;;;0.73;;
36827;SDS011;22766;48.042;11.192;2023-04-25T00:19:53;1.42;;;0.85;;
36827;SDS011;22766;48.042;11.192;2023-04-25T00:22:20;2.95;;;0.80;;
36827;SDS011;22766;48.042;11.192;2023-04-25T00:24:47;1.10;;;0.75;;
36827;SDS011;22766;48.042;11.192;2023-04-25T00:27:14;2.45;;;0.85;;
36827;SDS011;22766;48.042;11.192;2023-04-25T00:29:41;1.08;;;0.68;;
36827;SDS011;22766;48.042;11.192;2023-04-25T00:32:08;0.57;;;0.57;;
36827;SDS011;22766;48.042;11.192;2023-04-25T00:34:35;1.70;;;1.00;;
36827;SDS011;22766;48.042;11.192;2023-04-25T00:37:02;1.10;;;0.80;;
36827;SDS011;22766;48.042;11.192;2023-04-25T00:39:29;4.10;;;1.23;;
36827;SDS011;22766;48.042;11.192;2023-04-25T00:41:55;4.07;;;1.45;;
36827;SDS011;22766;48.042;11.192;2023-04-25T00:44:23;2.28;;;0.98;;
36827;SDS011;22766;48.042;11.192;2023-04-25T00:46:51;0.95;;;0.85;;
36827;SDS011;22766;48.042;11.192;2023-04-25T00:49:18;2.35;;;0.80;;
36827;SDS011;22766;48.042;11.192;2023-04-25T00:51:45;0.90;;;0.60;;
36827;SDS011;22766;48.042;11.192;2023-04-25T00:54:12;1.42;;;0.77;;
36827;SDS011;22766;48.042;11.192;2023-04-25T00:56:39;1.05;;;0.60;;
36827;SDS011;22766;48.042;11.192;2023-04-25T00:59:07;1.30;;;0.75;;
36827;SDS011;22766;48.042;11.192;2023-04-25T01:01:35;3.75;;;0.88;;
36827;SDS011;22766;48.042;11.192;2023-04-25T01:04:04;1.35;;;0.82;;
36827;SDS011;22766;48.042;11.192;2023-04-25T01:06:31;1.15;;;0.70;;
36827;SDS011;22766;48.042;11.192;2023-04-25T01:08:58;1.05;;;0.90;;
36827;SDS011;22766;48.042;11.192;2023-04-25T01:11:25;3.67;;;0.88;;
36827;SDS011;22766;48.042;11.192;2023-04-25T01:13:52;1.95;;;1.00;;
36827;SDS011;22766;48.042;11.192;2023-04-25T01:16:19;1.00;;;0.80;;
36827;SDS011;22766;48.042;11.192;2023-04-25T01:18:46;1.15;;;0.82;;
36827;SDS011;22766;48.042;11.192;2023-04-25T01:21:14;2.50;;;1.10;;
36827;SDS011;22766;48.042;11.192;2023-04-25T01:23:41;4.03;;;1.00;;
36827;SDS011;22766;48.042;11.192;2023-04-25T01:26:09;1.63;;;0.65;;
36827;SDS011;22766;48.042;11.192;2023-04-25T01:28:37;1.95;;;0.73;;
36827;SDS011;22766;48.042;11.192;2023-04-25T01:31:08;1.53;;;1.03;;
36827;SDS011;22766;48.042;11.192;2023-04-25T01:33:35;1.08;;;0.77;;
36827;SDS011;22766;48.042;11.192;2023-04-25T01:36:02;5.10;;;0.90;;
36827;SDS011;22766;48.042;11.192;2023-04-25T01:38:29;1.20;;;0.90;;
36827;SDS011;22766;48.042;11.192;2023-04-25T01:40:56;1.33;;;0.90;;
36827;SDS011;22766;48.042;11.192;2023-04-25T01:43:23;1.27;;;0.85;;
36827;SDS011;22766;48.042;11.192;2023-04-25T01:45:50;2.88;;;0.90;;
36827;SDS011;22766;48.042;11.192;2023-04-25T01:48:18;3.25;;;0.90;;
36827;SDS011;22766;48.042;11.192;2023-04-25T01:50:46;1.25;;;0.82;;
36827;SDS011;22766;48.042;11.192;2023-04-25T01:53:13;2.13;;;1.48;;
36827;SDS011;22766;48.042;11.192;2023-04-25T01:55:43;2.35;;;0.70;;
36827;SDS011;22766;48.042;11.192;2023-04-25T01:58:13;2.97;;;1.00;;
36827;SDS011;22766;48.042;11.192;2023-04-25T02:00:59;2.13;;;0.85;;
36827;SDS011;22766;48.042;11.192;2023-04-25T02:03:31;2.22;;;1.10;;
36827;SDS011;22766;48.042;11.192;2023-04-25T02:06:00;1.50;;;0.77;;
36827;SDS011;22766;48.042;11.192;2023-04-25T02:08:29;1.50;;;1.02;;
36827;SDS011;22766;48.042;11.192;2023-04-25T02:10:56;1.63;;;1.00;;
36827;SDS011;22766;48.042;11.192;2023-04-25T02:13:29;2.40;;;0.93;;
36827;SDS011;22766;48.042;11.192;2023-04-25T02:16:12;1.83;;;0.88;;
36827;SDS011;22766;48.042;11.192;2023-04-25T02:18:39;2.72;;;1.20;;
36827;SDS011;22766;48.042;11.192;2023-04-25T02:21:06;1.90;;;0.98;;
36827;SDS011;22766;48.042;11.192;2023-04-25T02:23:33;1.80;;;1.23;;
36827;SDS011;22766;48.042;11.192;2023-04-25T02:25:59;1.25;;;0.95;;
36827;SDS011;22766;48.042;11.192;2023-04-25T02:28:26;1.33;;;0.90;;
36827;SDS011;22766;48.042;11.192;2023-04-25T02:30:53;4.47;;;1.15;;
36827;SDS011;22766;48.042;11.192;2023-04-25T02:33:20;2.55;;;1.10;;
36827;SDS011;22766;48.042;11.192;2023-04-25T02:35:47;1.45;;;0.98;;
36827;SDS011;22766;48.042;11.192;2023-04-25T02:38:14;2.75;;;0.98;;
36827;SDS011;22766;48.042;11.192;2023-04-25T02:40:41;2.95;;;1.20;;
36827;SDS011;22766;48.042;11.192;2023-04-25T02:43:08;1.48;;;0.73;;
36827;SDS011;22766;48.042;11.192;2023-04-25T02:45:34;4.18;;;0.88;;
36827;SDS011;22766;48.042;11.192;2023-04-25T02:48:02;5.15;;;1.20;;
36827;SDS011;22766;48.042;11.192;2023-04-25T02:50:31;1.45;;;0.77;;
36827;SDS011;22766;48.042;11.192;2023-04-25T02:52:58;2.20;;;1.05;;
36827;SDS011;22766;48.042;11.192;2023-04-25T02:55:30;0.88;;;0.70;;
36827;SDS011;22766;48.042;11.192;2023-04-25T02:57:59;1.52;;;1.13;;
36827;SDS011;22766;48.042;11.192;2023-04-25T03:00:36;1.65;;;0.68;;
36827;SDS011;22766;48.042;11.192;2023-04-25T03:03:03;1.02;;;0.90;;
36827;SDS011;22766;48.042;11.192;2023-04-25T03:05:30;1.67;;;0.90;;
36827;SDS011;22766;48.042;11.192;2023-04-25T03:07:57;1.95;;;1.00;;
36827;SDS011;22766;48.042;11.192;2023-04-25T03:10:25;2.00;;;0.80;;
36827;SDS011;22766;48.042;11.192;2023-04-25T03:12:53;0.88;;;0.68;;
36827;SDS011;22766;48.042;11.192;2023-04-25T03:15:19;1.40;;;1.30;;
36827;SDS011;22766;48.042;11.192;2023-04-25T03:17:46;1.92;;;0.85;;
36827;SDS011;22766;48.042;11.192;2023-04-25T03:20:13;1.42;;;1.10;;
36827;SDS011;22766;48.042;11.192;2023-04-25T03:22:39;2.33;;;0.93;;
36827;SDS011;22766;48.042;11.192;2023-04-25T03:25:06;1.30;;;0.80;;
36827;SDS011;22766;48.042;11.192;2023-04-25T03:27:33;2.08;;;0.80;;
36827;SDS011;22766;48.042;11.192;2023-04-25T03:30:01;1.00;;;0.90;;
36827;SDS011;22766;48.042;11.192;2023-04-25T03:32:29;1.10;;;0.90;;
36827;SDS011;22766;48.042;11.192;2023-04-25T03:34:56;2.15;;;0.82;;
36827;SDS011;22766;48.042;11.192;2023-04-25T03:37:24;2.25;;;0.88;;
36827;SDS011;22766;48.042;11.192;2023-04-25T03:39:51;1.55;;;0.82;;
36827;SDS011;22766;48.042;11.192;2023-04-25T03:42:18;2.53;;;0.93;;
36827;SDS011;22766;48.042;11.192;2023-04-25T03:44:45;1.17;;;0.95;;
36827;SDS011;22766;48.042;11.192;2023-04-25T03:47:12;6.72;;;1.55;;
36827;SDS011;22766;48.042;11.192;2023-04-25T03:49:39;2.25;;;1.40;;
36827;SDS011;22766;48.042;11.192;2023-04-25T03:52:06;1.52;;;1.08;;
36827;SDS011;22766;48.042;11.192;2023-04-25T03:54:36;4.93;;;1.07;;
36827;SDS011;22766;48.042;11.192;2023-04-25T03:57:13;1.20;;;0.95;;
36827;SDS011;22766;48.042;11.192;2023-04-25T03:59:41;3.33;;;1.08;;
36827;SDS011;22766;48.042;11.192;2023-04-25T04:02:10;1.27;;;0.80;;
36827;SDS011;22766;48.042;11.192;2023-04-25T04:04:38;1.75;;;0.98;;
36827;SDS011;22766;48.042;11.192;2023-04-25T04:07:05;3.83;;;1.10;;
36827;SDS011;22766;48.042;11.192;2023-04-25T04:09:35;2.85;;;1.27;;
36827;SDS011;22766;48.042;11.192;2023-04-25T04:12:06;3.42;;;1.10;;
36827;SDS011;22766;48.042;11.192;2023-04-25T04:14:34;1.65;;;1.00;;
36827;SDS011;22766;48.042;11.192;2023-04-25T04:17:01;1.60;;;0.90;;
36827;SDS011;22766;48.042;11.192;2023-04-25T04:19:28;1.67;;;0.93;;
36827;SDS011;22766;48.042;11.192;2023-04-25T04:22:08;2.58;;;1.27;;
36827;SDS011;22766;48.042;11.192;2023-04-25T04:24:35;1.58;;;1.08;;
36827;SDS011;22766;48.042;11.192;2023-04-25T04:27:05;2.28;;;1.20;;
36827;SDS011;22766;48.042;11.192;2023-04-25T04:29:37;2.03;;;1.30;;
36827;SDS011;22766;48.042;11.192;2023-04-25T04:32:23;2.25;;;1.50;;
36827;SDS011;22766;48.042;11.192;2023-04-25T04:34:53;1.30;;;1.00;;
36827;SDS011;22766;48.042;11.192;2023-04-25T04:37:22;1.75;;;1.27;;
36827;SDS011;22766;48.042;11.192;2023-04-25T04:39:48;2.83;;;1.25;;
36827;SDS011;22766;48.042;11.192;2023-04-25T04:42:38;2.65;;;1.08;;
36827;SDS011;22766;48.042;11.192;2023-04-25T04:45:14;4.10;;;1.48;;
36827;SDS011;22766;48.042;11.192;2023-04-25T04:48:08;2.92;;;1.20;;
36827;SDS011;22766;48.042;11.192;2023-04-25T04:51:08;1.85;;;1.13;;
36827;SDS011;22766;48.042;11.192;2023-04-25T04:53:41;4.30;;;1.40;;
36827;SDS011;22766;48.042;11.192;2023-04-25T04:56:20;3.53;;;1.45;;
36827;SDS011;22766;48.042;11.192;2023-04-25T04:59:02;4.57;;;1.08;;
36827;SDS011;22766;48.042;11.192;2023-04-25T05:01:44;4.00;;;1.33;;
36827;SDS011;22766;48.042;11.192;2023-04-25T05:04:45;4.13;;;1.50;;
36827;SDS011;22766;48.042;11.192;2023-04-25T05:07:31;3.95;;;1.30;;
36827;SDS011;22766;48.042;11.192;2023-04-25T05:10:19;2.78;;;1.35;;
36827;SDS011;22766;48.042;11.192;2023-04-25T05:12:55;3.58;;;1.63;;
36827;SDS011;22766;48.042;11.192;2023-04-25T05:15:22;3.30;;;1.35;;
36827;SDS011;22766;48.042;11.192;2023-04-25T05:18:09;5.57;;;1.30;;
36827;SDS011;22766;48.042;11.192;2023-04-25T05:20:39;2.08;;;1.15;;
36827;SDS011;22766;48.042;11.192;2023-04-25T05:23:34;3.25;;;1.27;;
36827;SDS011;22766;48.042;11.192;2023-04-25T05:26:23;2.75;;;1.02;;
36827;SDS011;22766;48.042;11.192;2023-04-25T05:29:08;4.85;;;1.08;;
36827;SDS011;22766;48.042;11.192;2023-04-25T05:31:54;4.13;;;1.23;;
36827;SDS011;22766;48.042;11.192;2023-04-25T05:34:21;1.15;;;0.98;;
36827;SDS011;22766;48.042;11.192;2023-04-25T05:37:08;1.95;;;1.48;;
36827;SDS011;22766;48.042;11.192;2023-04-25T05:39:44;2.72;;;1.33;;
36827;SDS011;22766;48.042;11.192;2023-04-25T05:45:19;3.90;;;1.10;;
36827;SDS011;22766;48.042;11.192;2023-04-25T05:47:54;3.60;;;1.20;;
36827;SDS011;22766;48.042;11.192;2023-04-25T05:50:31;2.03;;;1.10;;
36827;SDS011;22766;48.042;11.192;2023-04-25T05:53:31;2.03;;;1.08;;
36827;SDS011;22766;48.042;11.192;2023-04-25T05:56:00;2.85;;;1.27;;
36827;SDS011;22766;48.042;11.192;2023-04-25T05:58:28;2.25;;;1.35;;
36827;SDS011;22766;48.042;11.192;2023-04-25T06:00:56;2.10;;;1.40;;
36827;SDS011;22766;48.042;11.192;2023-04-25T06:03:23;2.50;;;1.20;;
36827;SDS011;22766;48.042;11.192;2023-04-25T06:05:50;3.58;;;1.33;;
36827;SDS011;22766;48.042;11.192;2023-04-25T06:08:18;1.67;;;1.08;;
36827;SDS011;22766;48.042;11.192;2023-04-25T06:10:45;2.28;;;1.42;;
36827;SDS011;22766;48.042;11.192;2023-04-25T06:13:12;3.83;;;1.48;;
36827;SDS011;22766;48.042;11.192;2023-04-25T06:15:39;2.08;;;1.40;;
36827;SDS011;22766;48.042;11.192;2023-04-25T06:18:06;3.10;;;1.30;;
36827;SDS011;22766;48.042;11.192;2023-04-25T06:20:33;2.60;;;1.48;;
36827;SDS011;22766;48.042;11.192;2023-04-25T06:23:00;2.60;;;1.58;;
36827;SDS011;22766;48.042;11.192;2023-04-25T06:25:39;3.28;;;1.50;;
36827;SDS011;22766;48.042;11.192;2023-04-25T06:28:06;2.25;;;1.40;;
36827;SDS011;22766;48.042;11.192;2023-04-25T06:30:33;3.28;;;1.52;;
36827;SDS011;22766;48.042;11.192;2023-04-25T06:33:05;2.42;;;1.10;;
36827;SDS011;22766;48.042;11.192;2023-04-25T06:35:32;4.03;;;1.70;;
36827;SDS011;22766;48.042;11.192;2023-04-25T06:37:58;3.42;;;1.48;;
36827;SDS011;22766;48.042;11.192;2023-04-25T06:42:57;2.88;;;1.23;;
36827;SDS011;22766;48.042;11.192;2023-04-25T06:45:44;7.28;;;1.15;;
36827;SDS011;22766;48.042;11.192;2023-04-25T06:48:13;2.53;;;1.70;;
36827;SDS011;22766;48.042;11.192;2023-04-25T06:50:41;5.95;;;1.98;;
36827;SDS011;22766;48.042;11.192;2023-04-25T06:53:08;3.97;;;1.45;;
36827;SDS011;22766;48.042;11.192;2023-04-25T06:55:35;4.65;;;1.58;;
36827;SDS011;22766;48.042;11.192;2023-04-25T06:58:10;2.47;;;1.58;;
36827;SDS011;22766;48.042;11.192;2023-04-25T07:00:57;4.82;;;1.73;;
36827;SDS011;22766;48.042;11.192;2023-04-25T07:03:25;3.15;;;1.10;;
36827;SDS011;22766;48.042;11.192;2023-04-25T07:08:24;3.78;;;1.75;;
36827;SDS011;22766;48.042;11.192;2023-04-25T07:10:51;2.33;;;1.52;;
36827;SDS011;22766;48.042;11.192;2023-04-25T07:13:17;2.00;;;1.20;;
36827;SDS011;22766;48.042;11.192;2023-04-25T07:15:44;8.38;;;1.40;;
36827;SDS011;22766;48.042;11.192;2023-04-25T07:18:12;2.30;;;1.13;;
36827;SDS011;22766;48.042;11.192;2023-04-25T07:20:39;7.30;;;1.70;;
36827;SDS011;22766;48.042;11.192;2023-04-25T07:23:05;6.50;;;1.60;;
36827;SDS011;22766;48.042;11.192;2023-04-25T07:25:32;4.90;;;1.42;;
36827;SDS011;22766;48.042;11.192;2023-04-25T07:28:00;4.10;;;1.23;;
36827;SDS011;22766;48.042;11.192;2023-04-25T07:30:27;1.83;;;1.20;;
36827;SDS011;22766;48.042;11.192;2023-04-25T07:32:54;2.72;;;1.63;;
36827;SDS011;22766;48.042;11.192;2023-04-25T07:35:20;2.35;;;1.00;;
36827;SDS011;22766;48.042;11.192;2023-04-25T07:37:47;2.63;;;1.38;;
36827;SDS011;22766;48.042;11.192;2023-04-25T07:40:17;2.85;;;1.00;;
36827;SDS011;22766;48.042;11.192;2023-04-25T07:42:51;2.33;;;0.90;;
36827;SDS011;22766;48.042;11.192;2023-04-25T07:45:25;3.20;;;0.82;;
36827;SDS011;22766;48.042;11.192;2023-04-25T07:47:52;5.65;;;1.40;;
36827;SDS011;22766;48.042;11.192;2023-04-25T07:50:20;1.95;;;1.10;;
36827;SDS011;22766;48.042;11.192;2023-04-25T07:52:47;1.40;;;1.00;;
36827;SDS011;22766;48.042;11.192;2023-04-25T07:55:24;2.10;;;0.85;;
36827;SDS011;22766;48.042;11.192;2023-04-25T07:58:14;2.38;;;0.80;;
36827;SDS011;22766;48.042;11.192;2023-04-25T08:00:44;1.15;;;0.75;;
36827;SDS011;22766;48.042;11.192;2023-04-25T08:03:24;2.25;;;0.70;;
36827;SDS011;22766;48.042;11.192;2023-04-25T08:05:52;1.48;;;0.73;;
36827;SDS011;22766;48.042;11.192;2023-04-25T08:08:20;1.80;;;1.10;;
36827;SDS011;22766;48.042;11.192;2023-04-25T08:10:47;2.35;;;1.05;;
36827;SDS011;22766;48.042;11.192;2023-04-25T08:13:16;1.20;;;0.93;;
36827;SDS011;22766;48.042;11.192;2023-04-25T08:15:43;7.82;;;1.00;;
36827;SDS011;22766;48.042;11.192;2023-04-25T08:18:10;5.20;;;1.08;;
36827;SDS011;22766;48.042;11.192;2023-04-25T08:20:37;1.65;;;0.98;;
36827;SDS011;22766;48.042;11.192;2023-04-25T08:23:06;1.48;;;0.70;;
36827;SDS011;22766;48.042;11.192;2023-04-25T08:25:56;2.47;;;0.70;;
36827;SDS011;22766;48.042;11.192;2023-04-25T08:28:26;1.92;;;0.70;;
36827;SDS011;22766;48.042;11.192;2023-04-25T08:30:54;1.88;;;0.80;;
36827;SDS011;22766;48.042;11.192;2023-04-25T08:33:21;4.25;;;1.00;;
36827;SDS011;22766;48.042;11.192;2023-04-25T08:36:08;1.45;;;0.60;;
36827;SDS011;22766;48.042;11.192;2023-04-25T08:38:35;1.48;;;0.80;;
36827;SDS011;22766;48.042;11.192;2023-04-25T08:41:05;2.17;;;0.80;;
36827;SDS011;22766;48.042;11.192;2023-04-25T08:43:33;2.08;;;0.90;;
36827;SDS011;22766;48.042;11.192;2023-04-25T08:46:01;3.40;;;1.08;;
36827;SDS011;22766;48.042;11.192;2023-04-25T08:48:38;3.80;;;0.73;;
36827;SDS011;22766;48.042;11.192;2023-04-25T08:51:07;3.78;;;0.88;;
36827;SDS011;22766;48.042;11.192;2023-04-25T08:53:40;3.15;;;0.95;;
36827;SDS011;22766;48.042;11.192;2023-04-25T08:56:12;1.30;;;0.70;;
36827;SDS011;22766;48.042;11.192;2023-04-25T08:58:47;1.70;;;0.82;;
36827;SDS011;22766;48.042;11.192;2023-04-25T09:01:17;5.00;;;0.80;;
36827;SDS011;22766;48.042;11.192;2023-04-25T09:03:50;2.13;;;0.75;;
36827;SDS011;22766;48.042;11.192;2023-04-25T09:06:17;1.55;;;0.80;;
36827;SDS011;22766;48.042;11.192;2023-04-25T09:08:49;0.88;;;0.50;;
36827;SDS011;22766;48.042;11.192;2023-04-25T09:11:16;0.68;;;0.50;;
36827;SDS011;22766;48.042;11.192;2023-04-25T09:13:45;1.55;;;0.70;;
36827;SDS011;22766;48.042;11.192;2023-04-25T09:16:20;1.50;;;0.50;;
36827;SDS011;22766;48.042;11.192;2023-04-25T09:19:16;1.67;;;0.43;;
36827;SDS011;22766;48.042;11.192;2023-04-25T09:22:05;1.85;;;0.63;;
36827;SDS011;22766;48.042;11.192;2023-04-25T09:27:08;3.38;;;0.65;;
36827;SDS011;22766;48.042;11.192;2023-04-25T09:29:38;3.67;;;0.95;;
36827;SDS011;22766;48.042;11.192;2023-04-25T09:32:11;2.43;;;0.87;;
36827;SDS011;22766;48.042;11.192;2023-04-25T09:34:40;1.15;;;0.60;;
36827;SDS011;22766;48.042;11.192;2023-04-25T09:37:11;1.88;;;1.15;;
36827;SDS011;22766;48.042;11.192;2023-04-25T09:40:13;1.23;;;0.50;;
36827;SDS011;22766;48.042;11.192;2023-04-25T09:42:57;0.93;;;0.60;;
36827;SDS011;22766;48.042;11.192;2023-04-25T09:45:25;1.70;;;0.43;;
36827;SDS011;22766;48.042;11.192;2023-04-25T09:47:55;2.33;;;0.57;;
36827;SDS011;22766;48.042;11.192;2023-04-25T09:50:29;0.98;;;0.50;;
36827;SDS011;22766;48.042;11.192;2023-04-25T09:53:04;1.58;;;0.75;;
36827;SDS011;22766;48.042;11.192;2023-04-25T09:55:55;3.97;;;0.73;;
36827;SDS011;22766;48.042;11.192;2023-04-25T09:58:24;1.38;;;0.73;;
36827;SDS011;22766;48.042;11.192;2023-04-25T10:01:00;1.17;;;0.50;;
36827;SDS011;22766;48.042;11.192;2023-04-25T10:03:39;5.47;;;0.90;;
36827;SDS011;22766;48.042;11.192;2023-04-25T10:06:18;4.63;;;0.75;;
36827;SDS011;22766;48.042;11.192;2023-04-25T10:08:49;2.53;;;0.80;;
36827;SDS011;22766;48.042;11.192;2023-04-25T10:11:18;2.90;;;0.80;;
36827;SDS011;22766;48.042;11.192;2023-04-25T10:13:45;0.88;;;0.50;;
36827;SDS011;22766;48.042;11.192;2023-04-25T10:16:14;1.13;;;0.65;;
36827;SDS011;22766;48.042;11.192;2023-04-25T10:18:42;1.08;;;0.50;;
36827;SDS011;22766;48.042;11.192;2023-04-25T10:21:09;2.40;;;0.68;;
36827;SDS011;22766;48.042;11.192;2023-04-25T10:23:37;1.02;;;0.50;;
36827;SDS011;22766;48.042;11.192;2023-04-25T10:26:04;0.55;;;0.47;;
36827;SDS011;22766;48.042;11.192;2023-04-25T10:28:54;2.15;;;0.60;;
36827;SDS011;22766;48.042;11.192;2023-04-25T10:31:29;2.40;;;0.63;;
36827;SDS011;22766;48.042;11.192;2023-04-25T10:33:57;2.70;;;0.68;;
36827;SDS011;22766;48.042;11.192;2023-04-25T10:36:25;3.38;;;1.33;;
36827;SDS011;22766;48.042;11.192;2023-04-25T10:38:55;1.55;;;0.95;;
36827;SDS011;22766;48.042;11.192;2023-04-25T10:41:24;1.83;;;0.82;;
36827;SDS011;22766;48.042;11.192;2023-04-25T10:43:58;1.90;;;0.98;;
36827;SDS011;22766;48.042;11.192;2023-04-25T10:46:28;1.23;;;0.90;;
36827;SDS011;22766;48.042;11.192;2023-04-25T10:48:58;2.10;;;0.77;;
36827;SDS011;22766;48.042;11.192;2023-04-25T10:51:26;1.98;;;0.90;;
36827;SDS011;22766;48.042;11.192;2023-04-25T10:54:01;1.02;;;0.93;;
36827;SDS011;22766;48.042;11.192;2023-04-25T10:56:32;2.58;;;1.10;;
36827;SDS011;22766;48.042;11.192;2023-04-25T10:59:11;2.53;;;0.88;;
36827;SDS011;22766;48.042;11.192;2023-04-25T11:09:38;2.70;;;0.80;;
36827;SDS011;22766;48.042;11.192;2023-04-25T11:12:07;2.42;;;0.90;;
36827;SDS011;22766;48.042;11.192;2023-04-25T11:14:35;1.05;;;0.50;;
36827;SDS011;22766;48.042;11.192;2023-04-25T11:17:02;1.02;;;0.50;;
36827;SDS011;22766;48.042;11.192;2023-04-25T11:19:34;0.70;;;0.43;;
36827;SDS011;22766;48.042;11.192;2023-04-25T11:22:02;1.00;;;0.60;;
36827;SDS011;22766;48.042;11.192;2023-04-25T11:24:30;1.55;;;0.60;;
36827;SDS011;22766;48.042;11.192;2023-04-25T11:26:57;0.60;;;0.40;;
36827;SDS011;22766;48.042;11.192;2023-04-25T11:29:29;0.57;;;0.40;;
36827;SDS011;22766;48.042;11.192;2023-04-25T11:31:57;0.60;;;0.30;;
36827;SDS011;22766;48.042;11.192;2023-04-25T11:34:31;0.95;;;0.50;;
36827;SDS011;22766;48.042;11.192;2023-04-25T11:37:01;1.83;;;0.65;;
36827;SDS011;22766;48.042;11.192;2023-04-25T11:39:29;0.98;;;0.50;;
36827;SDS011;22766;48.042;11.192;2023-04-25T11:41:56;0.90;;;0.50;;
36827;SDS011;22766;48.042;11.192;2023-04-25T11:44:24;0.93;;;0.60;;
36827;SDS011;22766;48.042;11.192;2023-04-25T11:46:51;2.75;;;0.52;;
36827;SDS011;22766;48.042;11.192;2023-04-25T11:49:18;1.65;;;0.50;;
36827;SDS011;22766;48.042;11.192;2023-04-25T11:51:46;1.17;;;0.40;;
36827;SDS011;22766;48.042;11.192;2023-04-25T11:54:14;1.92;;;0.60;;
36827;SDS011;22766;48.042;11.192;2023-04-25T11:56:45;0.50;;;0.40;;
36827;SDS011;22766;48.042;11.192;2023-04-25T11:59:12;0.60;;;0.60;;
36827;SDS011;22766;48.042;11.192;2023-04-25T12:01:40;0.98;;;0.40;;
36827;SDS011;22766;48.042;11.192;2023-04-25T12:04:18;0.65;;;0.40;;
36827;SDS011;22766;48.042;11.192;2023-04-25T12:06:50;3.40;;;0.60;;
36827;SDS011;22766;48.042;11.192;2023-04-25T12:09:27;0.60;;;0.45;;
36827;SDS011;22766;48.042;11.192;2023-04-25T12:11:56;0.63;;;0.32;;
36827;SDS011;22766;48.042;11.192;2023-04-25T12:14:31;0.63;;;0.40;;
36827;SDS011;22766;48.042;11.192;2023-04-25T12:16:59;0.60;;;0.40;;
36827;SDS011;22766;48.042;11.192;2023-04-25T12:19:34;1.08;;;0.40;;
36827;SDS011;22766;48.042;11.192;2023-04-25T12:22:03;1.20;;;0.22;;
36827;SDS011;22766;48.042;11.192;2023-04-25T12:24:44;1.23;;;0.30;;
36827;SDS011;22766;48.042;11.192;2023-04-25T12:27:13;0.70;;;0.30;;
36827;SDS011;22766;48.042;11.192;2023-04-25T12:29:52;0.40;;;0.40;;
36827;SDS011;22766;48.042;11.192;2023-04-25T12:32:21;0.32;;;0.15;;
36827;SDS011;22766;48.042;11.192;2023-04-25T12:34:49;0.50;;;0.30;;
36827;SDS011;22766;48.042;11.192;2023-04-25T12:37:15;0.70;;;0.35;;
36827;SDS011;22766;48.042;11.192;2023-04-25T12:39:42;0.20;;;0.20;;
36827;SDS011;22766;48.042;11.192;2023-04-25T12:42:09;0.30;;;0.30;;
36827;SDS011;22766;48.042;11.192;2023-04-25T12:44:39;0.57;;;0.47;;
36827;SDS011;22766;48.042;11.192;2023-04-25T12:47:07;1.95;;;0.30;;
36827;SDS011;22766;48.042;11.192;2023-04-25T12:49:34;0.28;;;0.20;;
36827;SDS011;22766;48.042;11.192;2023-04-25T12:52:01;0.30;;;0.20;;
36827;SDS011;22766;48.042;11.192;2023-04-25T12:54:28;0.22;;;0.20;;
36827;SDS011;22766;48.042;11.192;2023-04-25T12:56:54;0.20;;;0.20;;
36827;SDS011;22766;48.042;11.192;2023-04-25T12:59:21;0.38;;;0.20;;
36827;SDS011;22766;48.042;11.192;2023-04-25T13:01:48;0.43;;;0.25;;
36827;SDS011;22766;48.042;11.192;2023-04-25T13:04:16;0.88;;;0.25;;
36827;SDS011;22766;48.042;11.192;2023-04-25T13:06:43;0.20;;;0.20;;
36827;SDS011;22766;48.042;11.192;2023-04-25T13:09:09;0.43;;;0.30;;
36827;SDS011;22766;48.042;11.192;2023-04-25T13:11:38;0.80;;;0.30;;
36827;SDS011;22766;48.042;11.192;2023-04-25T13:14:05;0.30;;;0.30;;
36827;SDS011;22766;48.042;11.192;2023-04-25T13:16:32;0.20;;;0.17;;
36827;SDS011;22766;48.042;11.192;2023-04-25T13:19:00;0.20;;;0.20;;
36827;SDS011;22766;48.042;11.192;2023-04-25T13:21:26;0.30;;;0.20;;
36827;SDS011;22766;48.042;11.192;2023-04-25T13:23:53;0.20;;;0.20;;
36827;SDS011;22766;48.042;11.192;2023-04-25T13:26:20;0.28;;;0.20;;
36827;SDS011;22766;48.042;11.192;2023-04-25T13:28:47;0.30;;;0.30;;
36827;SDS011;22766;48.042;11.192;2023-04-25T13:31:14;0.20;;;0.20;;
36827;SDS011;22766;48.042;11.192;2023-04-25T13:33:41;0.20;;;0.10;;
36827;SDS011;22766;48.042;11.192;2023-04-25T13:36:07;0.10;;;0.10;;
36827;SDS011;22766;48.042;11.192;2023-04-25T13:38:34;0.17;;;0.17;;
36827;SDS011;22766;48.042;11.192;2023-04-25T13:41:01;0.80;;;0.30;;
36827;SDS011;22766;48.042;11.192;2023-04-25T13:43:28;3.13;;;0.40;;
36827;SDS011;22766;48.042;11.192;2023-04-25T13:45:55;0.43;;;0.30;;
36827;SDS011;22766;48.042;11.192;2023-04-25T13:48:21;0.20;;;0.20;;
36827;SDS011;22766;48.042;11.192;2023-04-25T13:50:49;0.20;;;0.20;;
36827;SDS011;22766;48.042;11.192;2023-04-25T13:53:16;0.45;;;0.20;;
36827;SDS011;22766;48.042;11.192;2023-04-25T13:55:42;0.20;;;0.20;;
36827;SDS011;22766;48.042;11.192;2023-04-25T13:58:09;0.32;;;0.30;;
36827;SDS011;22766;48.042;11.192;2023-04-25T14:00:36;0.57;;;0.30;;
36827;SDS011;22766;48.042;11.192;2023-04-25T14:03:05;0.10;;;0.10;;
36827;SDS011;22766;48.042;11.192;2023-04-25T14:05:34;0.38;;;0.20;;
36827;SDS011;22766;48.042;11.192;2023-04-25T14:08:06;0.38;;;0.20;;
36827;SDS011;22766;48.042;11.192;2023-04-25T14:10:34;0.65;;;0.30;;
36827;SDS011;22766;48.042;11.192;2023-04-25T14:13:02;0.20;;;0.20;;
36827;SDS011;22766;48.042;11.192;2023-04-25T14:15:31;0.25;;;0.20;;
36827;SDS011;22766;48.042;11.192;2023-04-25T14:17:59;0.30;;;0.20;;
36827;SDS011;22766;48.042;11.192;2023-04-25T14:20:26;0.20;;;0.17;;
36827;SDS011;22766;48.042;11.192;2023-04-25T14:22:54;0.20;;;0.10;;
36827;SDS011;22766;48.042;11.192;2023-04-25T14:25:22;0.40;;;0.10;;
36827;SDS011;22766;48.042;11.192;2023-04-25T14:27:49;0.55;;;0.30;;
36827;SDS011;22766;48.042;11.192;2023-04-25T14:30:20;0.25;;;0.25;;
36827;SDS011;22766;48.042;11.192;2023-04-25T14:32:48;0.38;;;0.25;;
36827;SDS011;22766;48.042;11.192;2023-04-25T14:35:16;0.10;;;0.10;;
36827;SDS011;22766;48.042;11.192;2023-04-25T14:37:43;1.35;;;0.30;;
36827;SDS011;22766;48.042;11.192;2023-04-25T14:40:10;0.10;;;0.10;;
36827;SDS011;22766;48.042;11.192;2023-04-25T14:42:39;0.20;;;0.20;;
36827;SDS011;22766;48.042;11.192;2023-04-25T14:45:06;0.28;;;0.28;;
36827;SDS011;22766;48.042;11.192;2023-04-25T14:47:38;0.40;;;0.25;;
36827;SDS011;22766;48.042;11.192;2023-04-25T14:50:05;0.52;;;0.30;;
36827;SDS011;22766;48.042;11.192;2023-04-25T14:52:32;0.32;;;0.10;;
36827;SDS011;22766;48.042;11.192;2023-04-25T14:54:59;0.10;;;0.10;;
36827;SDS011;22766;48.042;11.192;2023-04-25T14:57:33;0.57;;;0.30;;
36827;SDS011;22766;48.042;11.192;2023-04-25T15:00:01;0.13;;;0.13;;
36827;SDS011;22766;48.042;11.192;2023-04-25T15:02:31;0.10;;;0.10;;
36827;SDS011;22766;48.042;11.192;2023-04-25T15:04:57;0.28;;;0.22;;
36827;SDS011;22766;48.042;11.192;2023-04-25T15:07:24;0.10;;;0.10;;
36827;SDS011;22766;48.042;11.192;2023-04-25T15:09:51;0.15;;;0.15;;